Time;durP1;ratioP1;P1;durP2;ratioP2;P2;SDS_P1;SDS_P2;PMS_P1;PMS_P2;Temp;Humidity;BMP_temperature;BMP_pressure;BME280_temperature;BME280_humidity;BME280_pressure;Samples;Min_cycle;Max_cycle;Signal;HPM_P1;HPM_P2
2021/10/01 00:02:18;;;;;;;2.40;0.80;;;12.90;99.90;;;;;;5031028;28;20374;-61
2021/10/01 00:04:43;;;;;;;2.60;0.70;;;12.90;99.90;;;;;;5029027;28;20099;-63
2021/10/01 00:07:10;;;;;;;4.18;0.90;;;12.90;99.90;;;;;;5030745;28;20033;-61
2021/10/01 00:09:37;;;;;;;2.90;0.93;;;12.90;99.90;;;;;;5030202;28;20037;-61
2021/10/01 00:12:04;;;;;;;2.55;0.70;;;13.00;99.90;;;;;;5029705;28;20029;-62
2021/10/01 00:14:30;;;;;;;5.38;0.60;;;13.00;99.90;;;;;;5030254;28;20041;-61
2021/10/01 00:16:56;;;;;;;4.35;1.52;;;13.00;99.90;;;;;;5030006;28;20045;-61
2021/10/01 00:19:23;;;;;;;1.88;0.60;;;13.00;99.90;;;;;;5030317;28;20470;-62
2021/10/01 00:21:49;;;;;;;1.75;0.68;;;13.00;99.90;;;;;;5029998;28;20056;-62
2021/10/01 00:24:14;;;;;;;2.30;0.50;;;13.00;99.90;;;;;;5030285;28;20041;-61
2021/10/01 00:26:41;;;;;;;3.38;0.45;;;13.00;99.90;;;;;;5030344;28;20041;-61
2021/10/01 00:29:07;;;;;;;4.85;0.60;;;13.00;99.90;;;;;;5029634;28;20370;-62
2021/10/01 00:31:33;;;;;;;1.73;0.47;;;13.00;99.90;;;;;;5030173;28;20033;-62
2021/10/01 00:34:01;;;;;;;5.43;0.90;;;13.10;99.90;;;;;;5029604;28;20156;-61
2021/10/01 00:36:27;;;;;;;3.58;0.65;;;13.10;99.90;;;;;;5028977;28;20052;-61
2021/10/01 00:38:52;;;;;;;2.45;0.63;;;13.10;99.90;;;;;;5029833;28;20057;-62
2021/10/01 00:41:18;;;;;;;3.35;0.80;;;13.10;99.90;;;;;;5028848;28;20064;-62
2021/10/01 00:43:44;;;;;;;1.70;0.43;;;13.10;99.90;;;;;;5029914;28;20045;-62
2021/10/01 00:46:09;;;;;;;2.55;0.45;;;13.10;99.90;;;;;;5029835;28;20478;-61
2021/10/01 00:48:35;;;;;;;4.55;0.90;;;13.10;99.90;;;;;;5029889;28;20079;-62
2021/10/01 00:51:01;;;;;;;2.00;0.50;;;13.10;99.90;;;;;;5029775;28;20033;-61
2021/10/01 00:53:26;;;;;;;5.30;0.55;;;13.20;99.90;;;;;;5030070;28;20088;-62
2021/10/01 00:55:52;;;;;;;3.55;0.60;;;13.20;99.90;;;;;;5029599;28;20045;-62
2021/10/01 00:58:17;;;;;;;3.38;0.50;;;13.20;99.90;;;;;;5029524;28;20506;-62
2021/10/01 01:03:20;;;;;;;4.72;0.63;;;13.20;99.90;;;;;;5029131;28;20064;-62
2021/10/01 01:06:10;;;;;;;2.67;0.50;;;13.10;99.90;;;;;;5028364;28;20041;-63
2021/10/01 01:08:47;;;;;;;5.93;0.73;;;13.10;99.90;;;;;;5026289;28;20061;-62
2021/10/01 01:11:23;;;;;;;5.03;0.50;;;13.00;99.90;;;;;;5029243;28;20119;-64
2021/10/01 01:13:56;;;;;;;6.18;0.60;;;12.90;99.90;;;;;;5029744;28;20049;-62
2021/10/01 01:16:27;;;;;;;3.72;0.60;;;12.80;99.90;;;;;;5029357;28;20052;-62
2021/10/01 01:18:56;;;;;;;2.65;0.40;;;12.70;99.90;;;;;;5029086;28;20108;-66
2021/10/01 01:21:43;;;;;;;2.25;0.75;;;12.60;99.90;;;;;;5030035;28;20090;-62
2021/10/01 01:24:28;;;;;;;2.63;0.60;;;12.50;99.90;;;;;;5027140;28;20482;-62
2021/10/01 01:27:06;;;;;;;1.83;0.57;;;12.50;99.90;;;;;;5029898;28;20044;-62
2021/10/01 01:29:56;;;;;;;4.40;0.75;;;12.40;99.90;;;;;;5029461;28;20037;-62
2021/10/01 01:32:24;;;;;;;2.50;0.60;;;12.40;99.90;;;;;;5028264;28;20044;-63
2021/10/01 01:34:56;;;;;;;6.32;1.05;;;12.40;99.90;;;;;;5029537;28;20053;-62
2021/10/01 01:37:34;;;;;;;5.55;0.75;;;12.40;99.90;;;;;;5028991;28;20113;-62
2021/10/01 01:40:03;;;;;;;4.50;0.90;;;12.40;99.90;;;;;;5025491;28;20037;-61
2021/10/01 01:42:30;;;;;;;3.47;0.70;;;12.50;99.90;;;;;;5029436;28;20033;-61
2021/10/01 01:44:57;;;;;;;2.33;0.47;;;12.50;99.90;;;;;;5025713;28;20033;-62
2021/10/01 01:47:23;;;;;;;5.13;0.82;;;12.50;99.90;;;;;;5029522;28;20026;-62
2021/10/01 01:49:50;;;;;;;4.82;1.77;;;12.50;99.90;;;;;;5029128;28;20040;-62
2021/10/01 01:52:17;;;;;;;3.80;0.50;;;12.50;99.90;;;;;;5029206;28;20041;-66
2021/10/01 01:54:43;;;;;;;3.47;0.50;;;12.50;99.90;;;;;;5029644;28;20531;-62
2021/10/01 01:57:10;;;;;;;7.32;1.00;;;12.50;99.90;;;;;;5029037;28;20037;-61
2021/10/01 01:59:37;;;;;;;4.97;0.80;;;12.50;99.90;;;;;;5029252;28;20056;-62
2021/10/01 02:02:04;;;;;;;3.90;0.90;;;12.50;99.90;;;;;;5029995;28;20041;-63
2021/10/01 02:04:31;;;;;;;2.55;0.40;;;12.50;99.90;;;;;;5028601;28;20053;-61
2021/10/01 02:06:59;;;;;;;4.82;0.77;;;12.50;99.90;;;;;;5029204;28;20080;-62
2021/10/01 02:09:27;;;;;;;4.80;1.20;;;12.50;99.90;;;;;;5024269;28;20116;-61
2021/10/01 02:11:52;;;;;;;4.22;0.63;;;12.40;99.90;;;;;;5028907;28;20107;-61
2021/10/01 02:14:24;;;;;;;4.15;0.68;;;12.40;99.90;;;;;;5028557;28;20446;-65
2021/10/01 02:16:50;;;;;;;1.88;0.65;;;12.40;99.90;;;;;;5028806;28;20034;-61
2021/10/01 02:19:19;;;;;;;5.82;0.40;;;12.40;99.90;;;;;;5027943;28;20377;-62
2021/10/01 02:21:50;;;;;;;3.20;0.50;;;12.40;99.90;;;;;;5028943;28;20045;-61
2021/10/01 02:24:16;;;;;;;4.63;0.60;;;12.40;99.90;;;;;;5028437;28;20042;-61
2021/10/01 02:27:06;;;;;;;6.50;0.70;;;12.40;99.90;;;;;;5028757;28;20938;-61
2021/10/01 02:29:35;;;;;;;;;;;12.40;99.90;;;;;;5029120;28;20045;-60
2021/10/01 02:32:20;;;;;;;1.58;0.60;;;12.40;99.90;;;;;;5032505;28;19955;-61
2021/10/01 02:34:46;;;;;;;4.68;0.60;;;12.40;99.90;;;;;;5032425;28;20548;-62
2021/10/01 02:37:14;;;;;;;4.10;0.40;;;12.50;99.90;;;;;;5032435;28;20440;-61
2021/10/01 02:39:42;;;;;;;3.50;0.77;;;12.40;99.90;;;;;;5031588;28;20091;-62
2021/10/01 02:42:09;;;;;;;1.70;0.30;;;12.40;99.90;;;;;;5032029;28;20594;-62
2021/10/01 02:44:35;;;;;;;1.85;0.73;;;12.40;99.90;;;;;;5031671;28;20048;-64
2021/10/01 02:47:02;;;;;;;2.50;0.30;;;12.40;99.90;;;;;;5032494;28;20045;-61
2021/10/01 02:49:30;;;;;;;3.88;0.63;;;12.30;99.90;;;;;;5031507;28;20037;-61
2021/10/01 02:52:04;;;;;;;4.85;0.50;;;12.30;99.90;;;;;;5032293;28;20040;-61
2021/10/01 02:54:35;;;;;;;3.40;0.50;;;12.20;99.90;;;;;;5026141;28;20580;-62
2021/10/01 02:57:10;;;;;;;3.42;0.60;;;12.20;99.90;;;;;;5031628;28;20056;-61
2021/10/01 02:59:39;;;;;;;3.25;0.28;;;12.10;99.90;;;;;;5031445;28;20098;-61
2021/10/01 03:02:06;;;;;;;5.77;0.50;;;12.10;99.90;;;;;;5032222;28;20041;-61
2021/10/01 03:04:33;;;;;;;1.20;0.40;;;12.10;99.90;;;;;;5031327;28;20292;-61
2021/10/01 03:07:02;;;;;;;5.80;0.80;;;12.00;99.90;;;;;;5031774;28;20034;-61
2021/10/01 03:09:29;;;;;;;2.30;0.45;;;12.00;99.90;;;;;;5031152;28;20136;-63
2021/10/01 03:11:57;;;;;;;2.92;0.38;;;12.00;99.90;;;;;;5031716;28;20053;-61
2021/10/01 03:14:23;;;;;;;1.98;0.28;;;12.00;99.90;;;;;;5028211;28;20103;-60
2021/10/01 03:16:51;;;;;;;0.93;0.30;;;12.00;99.90;;;;;;5031373;28;20166;-62
2021/10/01 03:19:22;;;;;;;7.03;1.00;;;12.00;99.90;;;;;;5031487;28;20119;-62
2021/10/01 03:21:57;;;;;;;6.90;0.50;;;11.90;99.90;;;;;;5031091;28;20044;-60
2021/10/01 03:24:23;;;;;;;3.63;0.30;;;11.90;99.90;;;;;;5028116;28;20056;-61
2021/10/01 03:26:53;;;;;;;1.70;0.40;;;11.90;99.90;;;;;;5031027;28;20401;-61
2021/10/01 03:29:19;;;;;;;2.83;0.40;;;11.90;99.90;;;;;;5031159;28;20103;-61
2021/10/01 03:31:49;;;;;;;2.28;0.63;;;11.90;99.90;;;;;;5030516;28;20099;-62
2021/10/01 03:34:15;;;;;;;3.58;0.25;;;11.90;99.90;;;;;;5031426;28;20044;-64
2021/10/01 03:36:42;;;;;;;5.60;0.63;;;12.00;99.90;;;;;;5030746;28;20037;-62
2021/10/01 03:39:08;;;;;;;3.28;1.10;;;12.00;99.90;;;;;;5030759;28;20056;-61
2021/10/01 03:41:34;;;;;;;5.43;1.35;;;12.00;99.90;;;;;;5030400;28;20034;-65
2021/10/01 03:44:00;;;;;;;4.63;0.70;;;12.00;99.90;;;;;;5030880;28;20064;-60
2021/10/01 03:46:26;;;;;;;6.93;0.75;;;12.00;99.90;;;;;;5030806;28;20053;-61
2021/10/01 03:48:52;;;;;;;3.95;0.60;;;12.00;99.90;;;;;;5030265;28;20041;-61
2021/10/01 03:51:18;;;;;;;1.65;0.63;;;12.00;99.90;;;;;;5030456;28;20099;-61
2021/10/01 03:53:43;;;;;;;3.67;0.50;;;12.00;99.90;;;;;;5029058;28;20404;-63
2021/10/01 03:56:16;;;;;;;8.10;0.93;;;12.00;99.90;;;;;;5030400;28;20060;-62
2021/10/01 03:58:43;;;;;;;1.75;0.75;;;12.00;99.90;;;;;;5030168;28;20048;-61
2021/10/01 04:01:08;;;;;;;4.75;1.15;;;12.00;99.90;;;;;;5030303;28;20029;-60
2021/10/01 04:03:34;;;;;;;2.33;0.43;;;11.90;99.90;;;;;;5030733;28;20037;-63
2021/10/01 04:06:00;;;;;;;2.17;0.40;;;11.90;99.90;;;;;;5030392;28;20041;-63
2021/10/01 04:08:25;;;;;;;7.70;0.30;;;11.90;99.90;;;;;;5030409;28;20152;-61
2021/10/01 04:10:51;;;;;;;4.63;0.70;;;12.00;99.90;;;;;;5028321;28;20092;-60
2021/10/01 04:13:17;;;;;;;5.30;0.50;;;12.00;99.90;;;;;;5030349;28;20042;-61
2021/10/01 04:15:42;;;;;;;1.33;0.30;;;12.00;99.90;;;;;;5027887;28;20041;-62
2021/10/01 04:18:08;;;;;;;2.88;0.50;;;12.00;99.90;;;;;;5030116;28;20698;-61
2021/10/01 04:20:35;;;;;;;2.83;0.43;;;12.00;99.90;;;;;;5030264;28;20041;-62
2021/10/01 04:23:01;;;;;;;4.38;0.50;;;12.10;99.90;;;;;;5029738;28;20041;-62
2021/10/01 04:25:27;;;;;;;2.05;0.40;;;12.10;99.90;;;;;;5029809;28;20038;-62
2021/10/01 04:27:52;;;;;;;3.72;0.52;;;12.10;99.90;;;;;;5029790;28;20040;-63
2021/10/01 04:30:18;;;;;;;7.35;0.73;;;12.20;99.90;;;;;;5029722;28;20069;-62
2021/10/01 04:32:47;;;;;;;6.57;0.40;;;12.20;99.90;;;;;;5029374;28;20025;-63
2021/10/01 04:35:13;;;;;;;4.32;0.47;;;12.30;99.90;;;;;;5030110;28;20033;-62
2021/10/01 04:37:38;;;;;;;1.73;0.57;;;12.30;99.90;;;;;;5029894;28;20539;-61
2021/10/01 04:40:05;;;;;;;1.23;0.30;;;12.40;99.90;;;;;;5029208;28;20063;-61
2021/10/01 04:42:30;;;;;;;3.38;0.30;;;12.30;99.90;;;;;;5029259;28;20044;-62
2021/10/01 04:44:56;;;;;;;2.30;0.40;;;12.40;99.90;;;;;;5029204;28;20041;-60
2021/10/01 04:47:22;;;;;;;3.70;0.25;;;12.30;99.90;;;;;;5029731;28;20072;-63
2021/10/01 04:49:47;;;;;;;2.95;0.30;;;12.30;99.90;;;;;;5028869;28;20479;-61
2021/10/01 04:52:13;;;;;;;4.45;1.38;;;12.30;99.90;;;;;;5028662;28;20035;-62
2021/10/01 04:54:39;;;;;;;5.43;0.47;;;12.30;99.90;;;;;;5029684;28;20030;-63
2021/10/01 04:57:05;;;;;;;2.70;0.50;;;12.30;99.90;;;;;;5029186;28;20540;-63
2021/10/01 04:59:30;;;;;;;3.30;0.20;;;12.30;99.90;;;;;;5029620;28;20026;-62
2021/10/01 05:01:56;;;;;;;4.22;0.63;;;12.30;99.90;;;;;;5028834;28;20110;-61
2021/10/01 05:04:23;;;;;;;2.85;0.57;;;12.30;99.90;;;;;;5029531;28;20033;-62
2021/10/01 05:06:48;;;;;;;4.78;0.40;;;12.30;99.90;;;;;;5029193;28;20036;-66
2021/10/01 05:09:14;;;;;;;3.45;0.60;;;12.20;99.90;;;;;;5025323;28;20059;-63
2021/10/01 05:11:39;;;;;;;3.15;0.75;;;12.20;99.90;;;;;;5027427;28;20168;-62
2021/10/01 05:14:05;;;;;;;4.30;0.57;;;12.10;99.90;;;;;;5028651;28;20124;-61
2021/10/01 05:16:31;;;;;;;3.38;0.50;;;12.10;99.90;;;;;;5028888;28;20073;-61
2021/10/01 05:18:56;;;;;;;5.32;0.98;;;12.10;99.90;;;;;;5028844;28;20116;-63
2021/10/01 05:21:22;;;;;;;5.43;0.90;;;12.10;99.90;;;;;;5029202;28;20129;-61
2021/10/01 05:23:48;;;;;;;1.33;0.30;;;12.00;99.90;;;;;;5029325;28;20087;-63
2021/10/01 05:26:13;;;;;;;5.68;0.50;;;12.00;99.90;;;;;;5028948;28;20079;-62
2021/10/01 05:28:39;;;;;;;2.40;0.30;;;12.10;99.90;;;;;;5028690;28;20037;-63
2021/10/01 05:31:04;;;;;;;2.88;0.20;;;12.00;99.90;;;;;;5029083;28;20049;-61
2021/10/01 05:33:30;;;;;;;3.00;0.40;;;12.00;99.90;;;;;;5029064;28;20504;-62
2021/10/01 05:35:56;;;;;;;3.03;0.40;;;12.00;99.90;;;;;;5028758;28;20087;-64
2021/10/01 05:38:24;;;;;;;2.22;0.60;;;12.00;99.90;;;;;;5028696;28;20102;-61
2021/10/01 05:40:49;;;;;;;3.30;0.52;;;12.00;99.90;;;;;;5027778;28;20029;-61
2021/10/01 05:43:16;;;;;;;1.60;0.25;;;11.90;99.90;;;;;;5028306;28;20110;-61
2021/10/01 05:45:42;;;;;;;7.22;0.60;;;11.90;99.90;;;;;;5029222;28;20108;-63
2021/10/01 05:48:07;;;;;;;3.40;0.52;;;11.90;99.90;;;;;;5026955;28;20728;-61
2021/10/01 05:50:36;;;;;;;3.63;0.75;;;11.90;99.90;;;;;;5029089;28;20501;-61
2021/10/01 05:53:05;;;;;;;4.50;0.40;;;11.90;99.90;;;;;;5028575;28;20049;-64
2021/10/01 05:55:31;;;;;;;3.17;0.45;;;12.00;99.90;;;;;;5029244;28;20034;-64
2021/10/01 05:57:56;;;;;;;2.47;0.50;;;12.00;99.90;;;;;;5028672;28;20030;-63
2021/10/01 06:00:22;;;;;;;3.00;0.45;;;12.10;99.90;;;;;;5028281;28;20385;-62
2021/10/01 06:02:48;;;;;;;4.22;0.90;;;12.10;99.90;;;;;;5032248;28;20021;-63
2021/10/01 06:05:15;;;;;;;3.75;0.60;;;12.10;99.90;;;;;;5032931;28;20026;-61
2021/10/01 06:07:42;;;;;;;2.03;0.60;;;12.10;99.90;;;;;;5029081;28;20029;-62
2021/10/01 06:10:09;;;;;;;1.27;0.43;;;12.10;99.90;;;;;;5032065;28;20481;-61
2021/10/01 06:12:35;;;;;;;4.18;0.75;;;12.20;99.90;;;;;;5032625;28;20473;-63
2021/10/01 06:15:02;;;;;;;2.40;0.30;;;12.20;99.90;;;;;;5032784;28;20032;-62
2021/10/01 06:17:28;;;;;;;2.13;0.52;;;12.10;99.90;;;;;;5032170;28;20037;-62
2021/10/01 06:19:53;;;;;;;2.38;0.30;;;12.10;99.90;;;;;;5032548;28;20032;-66
2021/10/01 06:22:19;;;;;;;5.45;0.50;;;12.10;99.90;;;;;;5031995;28;20486;-62
2021/10/01 06:24:45;;;;;;;5.68;0.50;;;12.00;99.90;;;;;;5032444;28;20057;-62
2021/10/01 06:27:12;;;;;;;1.45;0.20;;;12.00;99.90;;;;;;5032219;28;20128;-62
2021/10/01 06:29:38;;;;;;;4.57;0.50;;;11.90;99.90;;;;;;5031273;28;20048;-62
2021/10/01 06:32:04;;;;;;;1.38;0.20;;;11.90;99.90;;;;;;5032292;28;20132;-61
2021/10/01 06:34:29;;;;;;;1.42;0.22;;;12.00;99.90;;;;;;5032207;28;20069;-59
2021/10/01 06:36:55;;;;;;;2.58;0.50;;;11.90;99.90;;;;;;5032499;28;20049;-61
2021/10/01 06:39:21;;;;;;;3.03;0.80;;;12.00;99.90;;;;;;5031627;28;20029;-61
2021/10/01 06:41:46;;;;;;;2.40;0.30;;;12.00;99.90;;;;;;5032138;28;20044;-61
2021/10/01 06:44:18;;;;;;;3.05;0.40;;;12.10;99.90;;;;;;5031691;28;20034;-62
2021/10/01 06:46:50;;;;;;;2.45;0.45;;;12.20;99.90;;;;;;5029099;28;20477;-62
2021/10/01 08:21:29;;;;;;;2.58;0.68;;;13.80;99.90;;;;;;5030216;28;20113;-60
2021/10/01 08:24:01;;;;;;;2.03;0.40;;;13.80;99.90;;;;;;5030304;28;20045;-61
2021/10/01 08:26:29;;;;;;;1.00;0.20;;;13.80;99.90;;;;;;5029301;28;20041;-61
2021/10/01 08:28:55;;;;;;;1.38;0.40;;;13.90;99.90;;;;;;5033007;28;20091;-61
2021/10/01 08:31:21;;;;;;;3.60;0.35;;;13.90;99.90;;;;;;5029781;28;20033;-61
2021/10/01 08:33:47;;;;;;;6.95;1.05;;;14.00;99.90;;;;;;5030251;28;20033;-62
2021/10/01 08:36:17;;;;;;;6.50;0.85;;;14.20;99.90;;;;;;5029176;28;20112;-62
2021/10/01 08:38:43;;;;;;;3.33;0.40;;;14.30;99.90;;;;;;5053434;28;20087;-62
2021/10/01 08:41:12;;;;;;;1.65;0.43;;;14.40;99.90;;;;;;5029584;28;20025;-62
2021/10/01 08:43:41;;;;;;;4.50;0.50;;;14.50;99.90;;;;;;5030045;28;20052;-61
2021/10/01 08:46:09;;;;;;;3.88;0.80;;;14.60;99.90;;;;;;5025056;28;20041;-61
2021/10/01 08:48:36;;;;;;;3.47;0.30;;;14.50;99.90;;;;;;5028299;28;20038;-61
2021/10/01 08:51:05;;;;;;;1.52;0.30;;;14.60;99.90;;;;;;5023715;28;20034;-61
2021/10/01 08:53:32;;;;;;;5.80;0.98;;;14.80;99.90;;;;;;5025107;28;20048;-62
2021/10/01 08:55:58;;;;;;;2.65;0.50;;;14.90;99.90;;;;;;5027304;28;20029;-62
2021/10/01 08:58:26;;;;;;;2.38;0.47;;;15.00;99.90;;;;;;5026821;28;20120;-61
2021/10/01 09:00:52;;;;;;;1.52;0.30;;;15.10;99.90;;;;;;5029202;28;20034;-61
2021/10/01 09:03:18;;;;;;;5.07;1.08;;;15.10;99.90;;;;;;5026545;28;20056;-62
2021/10/01 09:05:43;;;;;;;2.30;0.45;;;15.20;99.90;;;;;;5027070;28;20136;-62
2021/10/01 09:08:15;;;;;;;3.63;0.38;;;15.10;99.90;;;;;;5027018;28;20025;-61
2021/10/01 09:10:41;;;;;;;2.17;0.40;;;15.20;99.90;;;;;;5024908;28;20026;-61
2021/10/01 09:13:11;;;;;;;1.70;0.50;;;15.20;99.90;;;;;;5032569;28;20017;-61
2021/10/01 09:15:41;;;;;;;4.38;0.38;;;15.30;99.90;;;;;;5025858;28;20033;-62
2021/10/01 09:18:07;;;;;;;7.07;0.60;;;15.40;99.90;;;;;;5025233;28;20037;-62
2021/10/01 09:20:33;;;;;;;1.17;0.22;;;15.50;99.90;;;;;;5027379;28;20053;-62
2021/10/01 09:23:17;;;;;;;3.40;0.30;;;15.60;99.90;;;;;;5024220;28;20120;-62
2021/10/01 09:25:43;;;;;;;4.78;0.47;;;15.60;99.90;;;;;;5024232;28;20057;-63
2021/10/01 09:28:14;;;;;;;9.30;0.57;;;15.60;99.90;;;;;;5027763;28;20034;-62
2021/10/01 09:30:46;;;;;;;3.95;0.38;;;15.60;99.90;;;;;;5027784;28;20033;-62
2021/10/01 09:33:13;;;;;;;2.90;0.30;;;15.60;99.90;;;;;;5028262;28;20084;-62
2021/10/01 09:35:43;;;;;;;3.50;0.95;;;15.50;99.90;;;;;;5027628;28;20116;-62
2021/10/01 09:38:10;;;;;;;5.07;0.75;;;15.50;99.90;;;;;;5027990;28;20032;-61
2021/10/01 09:40:36;;;;;;;5.13;0.40;;;15.50;99.90;;;;;;5027470;28;20041;-64
2021/10/01 09:43:03;;;;;;;4.18;0.52;;;15.40;99.90;;;;;;5026283;28;20041;-62
2021/10/01 09:45:28;;;;;;;4.72;1.15;;;15.40;99.90;;;;;;5026171;28;20715;-64
2021/10/01 09:47:54;;;;;;;5.18;0.60;;;15.30;99.90;;;;;;5033714;28;20045;-62
2021/10/01 09:50:30;;;;;;;6.38;0.85;;;15.30;99.90;;;;;;5031223;28;20026;-62
2021/10/01 09:53:02;;;;;;;3.60;0.50;;;15.30;99.90;;;;;;5026883;28;20036;-61
2021/10/01 09:55:39;;;;;;;2.85;0.35;;;15.30;99.90;;;;;;5023620;28;20037;-63
2021/10/01 09:58:14;;;;;;;6.13;0.82;;;15.30;99.90;;;;;;5024281;28;20090;-62
2021/10/01 10:00:46;;;;;;;5.57;0.73;;;15.30;99.90;;;;;;5028483;28;20136;-62
2021/10/01 10:03:23;;;;;;;2.83;0.47;;;15.20;99.90;;;;;;5028585;28;20489;-61
2021/10/01 10:06:03;;;;;;;1.95;0.40;;;15.30;99.90;;;;;;5028406;28;20044;-61
2021/10/01 10:08:36;;;;;;;2.67;0.30;;;15.20;99.90;;;;;;5024887;28;20099;-61
2021/10/01 10:11:07;;;;;;;1.52;0.30;;;15.20;99.90;;;;;;5025277;28;20159;-61
2021/10/01 10:13:49;;;;;;;2.47;0.47;;;15.20;99.90;;;;;;5028509;28;20120;-61
2021/10/01 10:16:16;;;;;;;3.00;0.40;;;15.20;99.90;;;;;;5027523;28;20401;-62
2021/10/01 10:18:42;;;;;;;1.67;0.40;;;15.10;99.90;;;;;;5028539;28;20037;-62
2021/10/01 10:21:09;;;;;;;7.43;0.63;;;15.00;99.90;;;;;;5028645;28;20587;-62
2021/10/01 10:23:35;;;;;;;2.30;0.45;;;15.00;99.90;;;;;;5026626;28;20037;-62
2021/10/01 10:26:01;;;;;;;6.38;1.20;;;14.90;99.90;;;;;;5028747;28;20030;-66
2021/10/01 10:28:27;;;;;;;2.67;0.52;;;14.80;99.90;;;;;;5028611;28;20493;-62
2021/10/01 10:30:55;;;;;;;1.00;0.30;;;14.80;99.90;;;;;;5028530;28;20354;-61
2021/10/01 10:33:39;;;;;;;4.55;0.85;;;14.80;99.90;;;;;;5028631;28;20029;-63
2021/10/01 10:36:26;;;;;;;1.98;0.47;;;14.70;99.90;;;;;;5025361;28;20041;-62
2021/10/01 10:38:52;;;;;;;6.32;2.03;;;14.60;99.90;;;;;;5027496;28;20044;-62
2021/10/01 10:41:29;;;;;;;6.45;0.57;;;14.60;99.90;;;;;;5028522;28;20116;-63
2021/10/01 10:43:56;;;;;;;5.05;0.50;;;14.50;99.90;;;;;;5024507;28;20128;-66
2021/10/01 10:46:36;;;;;;;2.75;0.63;;;14.40;99.90;;;;;;5028470;28;20109;-62
2021/10/01 10:49:14;;;;;;;3.05;1.05;;;14.10;99.90;;;;;;5027792;28;20048;-63
2021/10/01 10:52:04;;;;;;;2.70;0.50;;;13.90;99.90;;;;;;5031372;28;20041;-63
2021/10/01 10:54:32;;;;;;;3.15;0.63;;;13.90;99.90;;;;;;5027707;28;20053;-62
2021/10/01 10:57:21;;;;;;;1.92;0.50;;;13.90;99.90;;;;;;5031700;28;20049;-62
2021/10/01 11:00:04;;;;;;;4.32;0.60;;;13.80;99.90;;;;;;5030971;28;20045;-63
2021/10/01 11:02:44;;;;;;;2.05;0.50;;;13.80;99.90;;;;;;5028763;28;20037;-62
2021/10/01 11:05:20;;;;;;;4.43;0.60;;;13.80;99.90;;;;;;5031674;28;20036;-61
2021/10/01 11:07:47;;;;;;;4.82;0.80;;;13.80;99.90;;;;;;5056576;28;20037;-64
2021/10/01 11:10:35;;;;;;;4.32;0.82;;;13.80;99.90;;;;;;5031303;28;20548;-62
2021/10/01 11:13:18;;;;;;;6.20;0.95;;;13.80;99.90;;;;;;5034528;28;20037;-62
2021/10/01 11:18:46;;;;;;;6.40;0.80;;;13.90;99.90;;;;;;5034886;28;20506;-62
2021/10/01 11:23:58;;;;;;;4.35;0.85;;;14.00;99.90;;;;;;5031574;28;20037;-62
2021/10/01 11:26:29;;;;;;;2.78;0.75;;;14.00;99.90;;;;;;5026995;28;20573;-62
2021/10/01 11:28:54;;;;;;;3.50;0.50;;;14.00;99.90;;;;;;5027650;28;20037;-62
2021/10/01 11:31:20;;;;;;;3.83;0.60;;;14.10;99.90;;;;;;5029250;28;20382;-62
2021/10/01 11:33:51;;;;;;;3.17;0.43;;;14.20;99.90;;;;;;5029339;28;20128;-62
2021/10/01 11:36:24;;;;;;;7.05;0.68;;;14.30;99.90;;;;;;5029409;28;20038;-62
2021/10/01 11:38:49;;;;;;;4.25;0.60;;;14.30;99.90;;;;;;5029687;28;20034;-61
2021/10/01 11:41:16;;;;;;;5.57;0.93;;;14.30;99.90;;;;;;5030480;28;20034;-62
2021/10/01 11:43:55;;;;;;;11.77;0.98;;;14.40;99.90;;;;;;5030253;28;20508;-62
2021/10/01 11:46:32;;;;;;;4.45;0.70;;;14.40;99.90;;;;;;5022667;28;20033;-62
2021/10/01 11:48:58;;;;;;;2.03;0.40;;;14.50;99.90;;;;;;5026799;28;20025;-63
2021/10/01 11:51:23;;;;;;;3.55;0.50;;;14.50;99.90;;;;;;5030295;28;20098;-62
2021/10/01 11:54:08;;;;;;;4.47;0.40;;;14.50;99.90;;;;;;5028781;28;20637;-62
2021/10/01 11:56:34;;;;;;;3.97;0.70;;;14.60;99.90;;;;;;5027943;28;20091;-63
2021/10/01 11:58:59;;;;;;;3.60;0.77;;;14.70;99.90;;;;;;5028291;28;20128;-62
2021/10/01 12:01:25;;;;;;;5.25;1.48;;;14.70;99.90;;;;;;5028800;28;20037;-62
2021/10/01 12:03:52;;;;;;;8.82;1.23;;;14.80;99.90;;;;;;5028617;28;20080;-62
2021/10/01 12:06:24;;;;;;;2.65;0.57;;;14.80;99.90;;;;;;5028057;28;20061;-61
2021/10/01 12:08:58;;;;;;;7.70;0.68;;;14.80;99.90;;;;;;5024331;28;20466;-63
2021/10/01 12:11:30;;;;;;;2.28;0.38;;;14.80;99.90;;;;;;5026112;28;20114;-62
2021/10/01 12:14:08;;;;;;;7.25;0.45;;;14.80;99.90;;;;;;5029657;28;20036;-62
2021/10/01 12:16:35;;;;;;;2.47;0.45;;;14.80;99.90;;;;;;5032761;28;20160;-62
2021/10/01 12:19:05;;;;;;;4.60;0.50;;;14.90;99.90;;;;;;5029516;28;20029;-62
2021/10/01 12:21:31;;;;;;;4.07;0.38;;;15.00;99.90;;;;;;5030076;28;20414;-62
2021/10/01 12:24:12;;;;;;;3.42;0.52;;;15.00;99.90;;;;;;5029777;28;20056;-62
2021/10/01 12:26:44;;;;;;;5.00;0.68;;;15.00;99.90;;;;;;5030489;28;20497;-62
2021/10/01 12:29:23;;;;;;;7.60;0.98;;;15.00;99.90;;;;;;5029922;28;20026;-62
2021/10/01 12:31:55;;;;;;;1.60;0.60;;;15.00;99.90;;;;;;5024593;28;20041;-62
2021/10/01 12:34:22;;;;;;;1.63;0.50;;;15.00;99.90;;;;;;5026321;28;20033;-62
2021/10/01 12:36:51;;;;;;;2.40;0.95;;;15.10;99.90;;;;;;5029760;28;20090;-62
2021/10/01 12:39:17;;;;;;;1.27;0.40;;;15.10;99.90;;;;;;5029704;28;20305;-62
2021/10/01 12:41:43;;;;;;;7.70;1.25;;;15.10;99.90;;;;;;5028632;28;20048;-62
2021/10/01 12:44:14;;;;;;;5.05;1.08;;;15.10;99.90;;;;;;5029370;28;20508;-62
2021/10/01 12:46:50;;;;;;;5.20;0.73;;;15.10;99.90;;;;;;5030047;28;20405;-63
2021/10/01 12:49:27;;;;;;;5.57;0.60;;;14.90;99.90;;;;;;5029457;28;20065;-64
2021/10/01 12:52:14;;;;;;;3.70;0.50;;;14.90;99.90;;;;;;5025021;28;20056;-64
2021/10/01 12:54:46;;;;;;;5.78;0.60;;;14.70;99.90;;;;;;5029791;28;20104;-65
2021/10/01 12:57:19;;;;;;;3.65;0.50;;;14.60;99.90;;;;;;5029346;28;21667;-62
2021/10/01 12:59:56;;;;;;;6.03;0.32;;;14.60;99.90;;;;;;5029690;28;20030;-62
2021/10/01 13:02:36;;;;;;;4.32;0.70;;;14.70;99.90;;;;;;5024901;28;20037;-62
2021/10/01 13:05:08;;;;;;;3.15;0.50;;;14.70;99.90;;;;;;5029176;28;20432;-62
2021/10/01 13:07:35;;;;;;;1.88;0.52;;;14.70;99.90;;;;;;5029911;28;20033;-62
2021/10/01 13:10:15;;;;;;;6.97;0.73;;;14.80;99.90;;;;;;5029378;28;20142;-62
2021/10/01 13:13:04;;;;;;;2.42;0.50;;;14.80;99.90;;;;;;5029161;28;20041;-62
2021/10/01 13:15:52;;;;;;;2.50;0.30;;;14.80;99.90;;;;;;5027110;28;20045;-62
2021/10/01 13:18:41;;;;;;;3.70;0.60;;;14.90;99.90;;;;;;5025322;28;20456;-61
2021/10/01 13:21:19;;;;;;;3.08;0.88;;;15.00;99.90;;;;;;5027592;28;20067;-62
2021/10/01 13:23:45;;;;;;;2.10;0.52;;;15.00;99.90;;;;;;5031743;28;20852;-62
2021/10/01 13:26:21;;;;;;;4.43;0.60;;;15.10;99.90;;;;;;5031539;28;20041;-63
2021/10/01 13:29:02;;;;;;;5.88;1.35;;;15.10;99.90;;;;;;5033086;28;20564;-62
2021/10/01 13:31:31;;;;;;;5.70;0.95;;;15.10;99.90;;;;;;5030889;28;20041;-62
2021/10/01 13:33:58;;;;;;;7.80;0.60;;;15.10;99.90;;;;;;5034879;28;20450;-62
2021/10/01 13:36:26;;;;;;;4.25;0.80;;;15.10;99.90;;;;;;5031172;28;20072;-62
2021/10/01 13:38:52;;;;;;;4.22;0.70;;;15.00;99.90;;;;;;5032218;28;20026;-61
2021/10/01 13:41:19;;;;;;;4.70;0.80;;;15.00;99.90;;;;;;5031985;28;20044;-62
2021/10/01 13:43:45;;;;;;;4.85;0.55;;;15.00;99.90;;;;;;5030848;28;20084;-62
2021/10/01 13:46:13;;;;;;;5.93;0.95;;;15.00;99.90;;;;;;5034632;28;20093;-63
2021/10/01 13:48:39;;;;;;;6.18;0.40;;;15.00;99.90;;;;;;5032249;28;20038;-62
2021/10/01 13:51:05;;;;;;;2.40;0.60;;;15.00;99.90;;;;;;5023944;28;20408;-63
2021/10/01 13:53:31;;;;;;;2.70;1.00;;;15.10;99.90;;;;;;5034932;28;20040;-61
2021/10/01 13:55:57;;;;;;;3.50;0.68;;;15.10;99.90;;;;;;5031293;28;20025;-62
2021/10/01 13:58:23;;;;;;;1.92;0.60;;;15.10;99.90;;;;;;5041816;28;20032;-62
2021/10/01 14:00:49;;;;;;;5.20;0.90;;;15.20;99.90;;;;;;5040729;28;20033;-62
2021/10/01 14:03:16;;;;;;;1.35;0.45;;;15.20;99.90;;;;;;5050091;28;20072;-61
2021/10/01 14:05:41;;;;;;;4.43;0.60;;;15.20;99.90;;;;;;5050195;28;20094;-62
2021/10/01 14:08:07;;;;;;;5.05;0.60;;;15.20;99.90;;;;;;5052522;28;20754;-62
2021/10/01 14:10:34;;;;;;;7.53;0.82;;;15.30;99.90;;;;;;5038114;28;20506;-63
2021/10/01 14:13:01;;;;;;;4.97;0.93;;;15.40;99.90;;;;;;5036255;28;20566;-62
2021/10/01 14:15:31;;;;;;;2.95;0.70;;;15.40;99.90;;;;;;5037185;28;20033;-62
2021/10/01 14:17:58;;;;;;;7.15;1.15;;;15.50;99.90;;;;;;5040424;28;20026;-62
2021/10/01 14:20:26;;;;;;;4.00;0.55;;;15.50;99.90;;;;;;5042698;28;20668;-62
2021/10/01 14:22:52;;;;;;;4.88;0.60;;;15.60;99.90;;;;;;5040883;28;20021;-62
2021/10/01 14:25:20;;;;;;;5.30;0.70;;;15.70;99.90;;;;;;5041293;28;20509;-62
2021/10/01 14:27:47;;;;;;;1.65;0.50;;;15.80;99.90;;;;;;5042990;28;20041;-62
2021/10/01 14:30:15;;;;;;;7.60;1.08;;;15.70;99.90;;;;;;5050963;28;20105;-62
2021/10/01 14:32:42;;;;;;;4.32;0.40;;;15.70;99.90;;;;;;5051004;28;20033;-62
2021/10/01 14:35:09;;;;;;;6.55;0.88;;;15.80;99.90;;;;;;5045960;28;20120;-62
2021/10/01 14:37:37;;;;;;;2.50;0.40;;;15.80;99.90;;;;;;5044181;28;20053;-63
2021/10/01 14:40:04;;;;;;;1.08;0.43;;;15.70;99.90;;;;;;5041442;28;20032;-62